Time,TemperatureF,DewpointF,PressureIn,WindDirection,WindDirectionDegrees,WindSpeedMPH,WindSpeedGustMPH,Humidity,HourlyPrecipIn,Conditions,Clouds,dailyrainin,SoftwareType,DateUTC
2014-12-28 00:05:00,71.8,21.6,30.16,SE,135,0.0,1.0,15,0.00,,,0.00,Wunderground PWS Mod,2014-12-28 05:05:00,
2014-12-28 00:15:00,71.8,21.6,30.16,SE,135,0.0,0.0,15,0.00,,,0.00,Wunderground PWS Mod,2014-12-28 05:15:00,
2014-12-28 00:20:00,71.7,21.5,30.16,N/A,-737280,0.0,0.0,15,0.00,,,0.00,Wunderground PWS Mod,2014-12-28 05:20:00,
2014-12-28 00:30:00,71.5,21.4,30.16,SE,135,0.0,0.0,15,0.00,,,0.00,Wunderground PWS Mod,2014-12-28 05:30:00,
2014-12-28 00:40:00,71.3,21.2,30.16,SE,135,0.0,0.0,15,0.00,,,0.00,Wunderground PWS Mod,2014-12-28 05:40:00,
2014-12-28 00:50:00,71.2,21.1,30.15,SE,135,0.0,0.0,15,0.00,,,0.00,Wunderground PWS Mod,2014-12-28 05:50:00,
2014-12-28 00:55:00,71.1,21.1,30.15,SE,135,0.0,0.0,15,0.00,,,0.00,Wunderground PWS Mod,2014-12-28 05:55:00,
2014-12-28 01:05:00,71.4,21.3,30.15,SE,135,1.0,1.0,15,0.00,,,0.00,Wunderground PWS Mod,2014-12-28 06:05:00,
2014-12-28 01:15:00,71.4,21.3,30.14,SE,135,0.0,0.0,15,0.00,,,0.00,Wunderground PWS Mod,2014-12-28 06:15:00,
2014-12-28 01:25:00,71.4,21.3,30.14,SE,135,0.0,0.0,15,0.00,,,0.00,Wunderground PWS Mod,2014-12-28 06:25:00,
2014-12-28 01:35:00,71.4,21.3,30.14,SE,135,0.0,2.0,15,0.00,,,0.00,Wunderground PWS Mod,2014-12-28 06:35:00,
2014-12-28 01:40:00,71.4,21.3,30.14,N/A,-737280,0.0,0.0,15,0.00,,,0.00,Wunderground PWS Mod,2014-12-28 06:40:00,
2014-12-28 01:50:00,71.4,21.3,30.14,SE,135,0.0,3.0,15,0.00,,,0.00,Wunderground PWS Mod,2014-12-28 06:50:00,
2014-12-28 01:55:00,71.3,21.2,30.14,SE,135,0.0,3.0,15,0.00,,,0.00,Wunderground PWS Mod,2014-12-28 06:55:00,
2014-12-28 02:05:00,71.3,21.2,30.14,SE,135,0.0,0.0,15,0.00,,,0.00,Wunderground PWS Mod,2014-12-28 07:05:00,
2014-12-28 02:10:00,71.3,21.2,30.14,N/A,-737280,0.0,0.0,15,0.00,,,0.00,Wunderground PWS Mod,2014-12-28 07:10:00,
2014-12-28 02:20:00,71.1,21.1,30.14,SE,135,0.0,0.0,15,0.00,,,0.00,Wunderground PWS Mod,2014-12-28 07:20:00,
2014-12-28 02:30:00,71.0,21.0,30.14,SE,135,0.0,0.0,15,0.00,,,0.00,Wunderground PWS Mod,2014-12-28 07:30:00,
2014-12-28 02:35:00,70.9,20.9,30.14,SE,135,0.0,0.0,15,0.00,,,0.00,Wunderground PWS Mod,2014-12-28 07:35:00,
2014-12-28 02:45:00,70.6,20.7,30.14,SE,135,0.0,0.0,15,0.00,,,0.00,Wunderground PWS Mod,2014-12-28 07:45:00,
2014-12-28 02:55:00,70.4,20.5,30.14,SE,135,0.0,0.0,15,0.00,,,0.00,Wunderground PWS Mod,2014-12-28 07:55:00,
2014-12-28 03:00:00,70.2,20.3,30.13,SE,135,0.0,0.0,15,0.00,,,0.00,Wunderground PWS Mod,2014-12-28 08:00:00,
2014-12-28 03:10:00,70.0,20.2,30.13,SE,135,0.0,0.0,15,0.00,,,0.00,Wunderground PWS Mod,2014-12-28 08:10:00,
2014-12-28 03:20:00,69.7,19.9,30.14,SE,135,0.0,0.0,15,0.00,,,0.00,Wunderground PWS Mod,2014-12-28 08:20:00,
2014-12-28 03:25:00,69.6,19.9,30.14,SE,135,0.0,0.0,15,0.00,,,0.00,Wunderground PWS Mod,2014-12-28 08:25:00,
2014-12-28 03:35:00,69.3,19.6,30.14,SE,135,0.0,0.0,15,0.00,,,0.00,Wunderground PWS Mod,2014-12-28 08:35:00,
2014-12-28 03:45:00,68.9,19.3,30.14,SE,135,0.0,0.0,15,0.00,,,0.00,Wunderground PWS Mod,2014-12-28 08:45:00,
2014-12-28 03:55:00,68.6,19.1,30.14,SE,135,0.0,0.0,15,0.00,,,0.00,Wunderground PWS Mod,2014-12-28 08:55:00,
2014-12-28 04:05:00,68.4,18.9,30.13,SE,135,0.0,0.0,15,0.00,,,0.00,Wunderground PWS Mod,2014-12-28 09:05:00,
2014-12-28 04:10:00,68.4,18.9,30.13,N/A,-737280,0.0,0.0,15,0.00,,,0.00,Wunderground PWS Mod,2014-12-28 09:10:00,
2014-12-28 04:20:00,68.0,18.6,30.13,SE,135,0.0,0.0,15,0.00,,,0.00,Wunderground PWS Mod,2014-12-28 09:20:00,
2014-12-28 04:25:00,67.9,18.5,30.13,SE,135,0.0,0.0,15,0.00,,,0.00,Wunderground PWS Mod,2014-12-28 09:25:00,
2014-12-28 04:35:00,67.7,18.3,30.13,SE,135,0.0,0.0,15,0.00,,,0.00,Wunderground PWS Mod,2014-12-28 09:35:00,
2014-12-28 04:45:00,67.4,18.1,30.13,SE,135,0.0,0.0,15,0.00,,,0.00,Wunderground PWS Mod,2014-12-28 09:45:00,
2014-12-28 04:55:00,67.2,17.9,30.13,SE,135,0.0,0.0,15,0.00,,,0.00,Wunderground PWS Mod,2014-12-28 09:55:00,
2014-12-28 05:00:00,67.2,17.9,30.13,SE,135,0.0,0.0,15,0.00,,,0.00,Wunderground PWS Mod,2014-12-28 10:00:00,
2014-12-28 05:05:00,67.1,17.8,30.13,SE,135,0.0,0.0,15,0.00,,,0.00,Wunderground PWS Mod,2014-12-28 10:05:00,
2014-12-28 05:15:00,66.9,17.7,30.13,SE,135,0.0,0.0,15,0.00,,,0.00,Wunderground PWS Mod,2014-12-28 10:15:00,
2014-12-28 05:25:00,66.8,17.6,30.13,SE,135,0.0,0.0,15,0.00,,,0.00,Wunderground PWS Mod,2014-12-28 10:25:00,
2014-12-28 05:35:00,66.6,17.4,30.14,SE,135,0.0,0.0,15,0.00,,,0.00,Wunderground PWS Mod,2014-12-28 10:35:00,
2014-12-28 05:40:00,66.6,17.4,30.14,N/A,-737280,0.0,0.0,15,0.00,,,0.00,Wunderground PWS Mod,2014-12-28 10:40:00,
2014-12-28 05:50:00,66.3,17.2,30.14,SE,135,0.0,0.0,15,0.00,,,0.00,Wunderground PWS Mod,2014-12-28 10:50:00,
2014-12-28 05:55:00,66.2,17.1,30.14,SE,135,0.0,0.0,15,0.00,,,0.00,Wunderground PWS Mod,2014-12-28 10:55:00,
2014-12-28 06:05:00,66.1,17.0,30.14,SE,135,0.0,0.0,15,0.00,,,0.00,Wunderground PWS Mod,2014-12-28 11:05:00,
2014-12-28 06:10:00,66.1,17.0,30.14,N/A,-737280,0.0,0.0,15,0.00,,,0.00,Wunderground PWS Mod,2014-12-28 11:10:00,
2014-12-28 06:20:00,65.8,16.8,30.14,SE,135,0.0,0.0,15,0.00,,,0.00,Wunderground PWS Mod,2014-12-28 11:20:00,
2014-12-28 06:30:00,65.6,16.6,30.14,SE,135,0.0,0.0,15,0.00,,,0.00,Wunderground PWS Mod,2014-12-28 11:30:00,
2014-12-28 06:35:00,65.5,16.6,30.14,SE,135,0.0,0.0,15,0.00,,,0.00,Wunderground PWS Mod,2014-12-28 11:35:00,
2014-12-28 06:45:00,65.4,16.5,30.14,SE,135,0.0,0.0,15,0.00,,,0.00,Wunderground PWS Mod,2014-12-28 11:45:00,
2014-12-28 06:50:00,65.3,16.4,30.14,SE,135,0.0,0.0,15,0.00,,,0.00,Wunderground PWS Mod,2014-12-28 11:50:00,
2014-12-28 07:00:00,65.2,16.3,30.15,SE,135,0.0,0.0,15,0.00,,,0.00,Wunderground PWS Mod,2014-12-28 12:00:00,
2014-12-28 07:10:00,65.0,16.2,30.15,SE,135,0.0,0.0,15,0.00,,,0.00,Wunderground PWS Mod,2014-12-28 12:10:00,
2014-12-28 07:15:00,65.0,16.2,30.15,SE,135,0.0,0.0,15,0.00,,,0.00,Wunderground PWS Mod,2014-12-28 12:15:00,
2014-12-28 07:25:00,64.9,16.1,30.15,SE,135,0.0,0.0,15,0.00,,,0.00,Wunderground PWS Mod,2014-12-28 12:25:00,
2014-12-28 07:35:00,64.9,16.1,30.16,SE,135,0.0,0.0,15,0.00,,,0.00,Wunderground PWS Mod,2014-12-28 12:35:00,
2014-12-28 07:45:00,64.9,16.1,30.16,SE,135,0.0,0.0,15,0.00,,,0.00,Wunderground PWS Mod,2014-12-28 12:45:00,
2014-12-28 07:50:00,65.0,16.2,30.16,SE,135,0.0,0.0,15,0.00,,,0.00,Wunderground PWS Mod,2014-12-28 12:50:00,
2014-12-28 07:55:00,65.2,16.3,30.16,SE,135,0.0,0.0,15,0.00,,,0.00,Wunderground PWS Mod,2014-12-28 12:55:00,
2014-12-28 08:05:00,65.6,16.6,30.17,SE,135,0.0,0.0,15,0.00,,,0.00,Wunderground PWS Mod,2014-12-28 13:05:00,
2014-12-28 08:15:00,66.2,17.1,30.17,SE,135,0.0,0.0,15,0.00,,,0.00,Wunderground PWS Mod,2014-12-28 13:15:00,
2014-12-28 08:25:00,67.0,17.8,30.17,SE,135,0.0,0.0,15,0.00,,,0.00,Wunderground PWS Mod,2014-12-28 13:25:00,
2014-12-28 08:35:00,67.8,18.4,30.17,SE,135,0.0,0.0,15,0.00,,,0.00,Wunderground PWS Mod,2014-12-28 13:35:00,
2014-12-28 08:45:00,68.5,19.0,30.17,SE,135,0.0,0.0,15,0.00,,,0.00,Wunderground PWS Mod,2014-12-28 13:45:00,
2014-12-28 08:50:00,69.0,19.4,30.17,SE,135,0.0,0.0,15,0.00,,,0.00,Wunderground PWS Mod,2014-12-28 13:50:00,
2014-12-28 08:55:00,69.6,19.9,30.17,SE,135,0.0,0.0,15,0.00,,,0.00,Wunderground PWS Mod,2014-12-28 13:55:00,
2014-12-28 09:05:00,70.9,20.9,30.17,SE,135,0.0,0.0,15,0.00,,,0.00,Wunderground PWS Mod,2014-12-28 14:05:00,
2014-12-28 09:15:00,72.7,22.3,30.18,SE,135,1.0,1.0,15,0.00,,,0.00,Wunderground PWS Mod,2014-12-28 14:15:00,
2014-12-28 09:25:00,74.4,23.7,30.18,SE,140,1.0,1.0,15,0.00,,,0.00,Wunderground PWS Mod,2014-12-28 14:25:00,
2014-12-28 09:35:00,75.5,24.6,30.18,SE,143,1.0,3.0,15,0.00,,,0.00,Wunderground PWS Mod,2014-12-28 14:35:00,
2014-12-28 09:45:00,76.3,25.2,30.18,SE,143,1.0,5.0,15,0.00,,,0.00,Wunderground PWS Mod,2014-12-28 14:45:00,
2014-12-28 09:50:00,76.8,25.6,30.19,SE,138,1.0,4.0,15,0.00,,,0.00,Wunderground PWS Mod,2014-12-28 14:50:00,
2014-12-28 09:55:00,77.1,25.9,30.19,SE,138,1.0,1.0,15,0.00,,,0.00,Wunderground PWS Mod,2014-12-28 14:55:00,
2014-12-28 10:05:00,77.5,26.2,30.18,SE,125,2.0,4.0,15,0.00,,,0.00,Wunderground PWS Mod,2014-12-28 15:05:00,
2014-12-28 10:10:00,77.4,26.1,30.18,ESE,122,3.0,5.0,15,0.00,,,0.00,Wunderground PWS Mod,2014-12-28 15:10:00,
2014-12-28 10:15:00,77.5,26.2,30.17,ESE,122,2.0,2.0,15,0.00,,,0.00,Wunderground PWS Mod,2014-12-28 15:15:00,
2014-12-28 10:25:00,77.9,26.5,30.17,SE,127,2.0,2.0,15,0.00,,,0.00,Wunderground PWS Mod,2014-12-28 15:25:00,
2014-12-28 10:35:00,78.1,26.7,30.17,SE,126,3.0,3.0,15,0.00,,,0.00,Wunderground PWS Mod,2014-12-28 15:35:00,
2014-12-28 10:45:00,78.2,26.7,30.17,ESE,117,4.0,4.0,15,0.00,,,0.00,Wunderground PWS Mod,2014-12-28 15:45:00,
2014-12-28 10:50:00,78.3,26.8,30.17,ESE,118,4.0,7.0,15,0.00,,,0.00,Wunderground PWS Mod,2014-12-28 15:50:00,
2014-12-28 11:00:00,78.7,27.1,30.17,ESE,123,2.0,2.0,15,0.00,,,0.00,Wunderground PWS Mod,2014-12-28 16:00:00,
2014-12-28 11:05:00,78.9,27.3,30.17,ESE,119,3.0,7.0,15,0.00,,,0.00,Wunderground PWS Mod,2014-12-28 16:05:00,
2014-12-28 11:15:00,79.2,27.5,30.17,SE,127,5.0,9.0,15,0.00,,,0.00,Wunderground PWS Mod,2014-12-28 16:15:00,
2014-12-28 11:25:00,79.6,27.9,30.17,SE,140,3.0,5.0,15,0.00,,,0.00,Wunderground PWS Mod,2014-12-28 16:25:00,
2014-12-28 11:30:00,79.6,27.9,30.17,SE,135,1.0,5.0,15,0.00,,,0.00,Wunderground PWS Mod,2014-12-28 16:30:00,
2014-12-28 11:40:00,80.1,28.3,30.16,SE,130,3.0,3.0,15,0.00,,,0.00,Wunderground PWS Mod,2014-12-28 16:40:00,
2014-12-28 11:45:00,80.0,28.2,30.16,SE,135,4.0,4.0,15,0.00,,,0.00,Wunderground PWS Mod,2014-12-28 16:45:00,
2014-12-28 11:55:00,80.6,28.7,30.16,SSE,153,2.0,5.0,15,0.00,,,0.00,Wunderground PWS Mod,2014-12-28 16:55:00,
2014-12-28 12:05:00,80.7,28.7,30.14,SSE,160,4.0,7.0,15,0.00,,,0.00,Wunderground PWS Mod,2014-12-28 17:05:00,
2014-12-28 12:10:00,80.2,28.3,30.14,SSE,165,5.0,5.0,15,0.00,,,0.00,Wunderground PWS Mod,2014-12-28 17:10:00,
2014-12-28 12:25:00,80.1,28.3,30.14,SSE,160,4.0,4.0,15,0.00,,,0.00,Wunderground PWS Mod,2014-12-28 17:25:00,
2014-12-28 12:35:00,80.7,28.7,30.13,SE,133,4.0,7.0,15,0.00,,,0.00,Wunderground PWS Mod,2014-12-28 17:35:00,
2014-12-28 12:40:00,80.7,28.7,30.13,South,174,4.0,7.0,15,0.00,,,0.00,Wunderground PWS Mod,2014-12-28 17:40:00,
2014-12-28 12:45:00,80.6,28.7,30.13,SSE,167,4.0,7.0,15,0.00,,,0.00,Wunderground PWS Mod,2014-12-28 17:45:00,
2014-12-28 12:55:00,80.4,28.5,30.13,SSE,160,3.0,11.0,15,0.00,,,0.00,Wunderground PWS Mod,2014-12-28 17:55:00,
2014-12-28 13:05:00,80.8,28.8,30.12,SE,138,4.0,9.0,15,0.00,,,0.00,Wunderground PWS Mod,2014-12-28 18:05:00,
2014-12-28 13:15:00,81.0,29.0,30.12,SSE,160,3.0,11.0,15,0.00,,,0.00,Wunderground PWS Mod,2014-12-28 18:15:00,
2014-12-28 13:25:00,81.0,29.0,30.11,SE,145,3.0,5.0,15,0.00,,,0.00,Wunderground PWS Mod,2014-12-28 18:25:00,
2014-12-28 13:30:00,80.9,28.9,30.11,SE,135,4.0,7.0,15,0.00,,,0.00,Wunderground PWS Mod,2014-12-28 18:30:00,
2014-12-28 13:40:00,80.9,28.9,30.11,SE,130,3.0,12.0,15,0.00,,,0.00,Wunderground PWS Mod,2014-12-28 18:40:00,
2014-12-28 13:45:00,80.3,28.4,30.11,SE,126,3.0,12.0,15,0.00,,,0.00,Wunderground PWS Mod,2014-12-28 18:45:00,